createdAt,value
2023-04-17T00:01:56.789Z,96105.84
2023-04-17T00:04:26.108Z,96114.41
2023-04-17T00:06:54.477Z,96096.41
2023-04-17T00:09:24.213Z,96118.22
2023-04-17T00:11:52.545Z,96117.13
2023-04-17T00:14:20.885Z,96133.00
2023-04-17T00:16:49.658Z,96065.69
2023-04-17T00:19:17.962Z,96116.44
2023-04-17T00:21:46.342Z,96115.06
2023-04-17T00:24:14.822Z,96118.22
2023-04-17T00:26:44.555Z,96112.44
2023-04-17T00:29:13.073Z,96115.22
2023-04-17T00:31:41.571Z,96104.63
2023-04-17T00:34:09.910Z,96114.09
2023-04-17T00:36:38.189Z,96110.75
2023-04-17T00:39:06.637Z,96112.22
2023-04-17T00:41:34.993Z,96125.06
2023-04-17T00:44:04.875Z,96114.13
2023-04-17T00:46:34.093Z,96120.22
2023-04-17T00:49:02.834Z,96117.06
2023-04-17T00:51:31.678Z,96118.59
2023-04-17T00:54:01.760Z,96114.84
2023-04-17T00:56:31.020Z,96113.94
2023-04-17T00:59:02.554Z,96119.16
2023-04-17T01:01:32.472Z,96111.47
2023-04-17T01:04:02.015Z,96115.78
2023-04-17T01:06:30.528Z,96113.44
2023-04-17T01:08:59.835Z,96066.47
2023-04-17T01:11:28.480Z,96087.38
2023-04-17T01:13:56.864Z,96115.44
2023-04-17T01:16:25.231Z,96116.00
2023-04-17T01:18:55.085Z,96111.78
2023-04-17T01:21:23.454Z,96042.06
2023-04-17T01:23:53.373Z,96107.81
2023-04-17T01:26:24.813Z,96112.09
2023-04-17T01:28:54.849Z,96108.88
2023-04-17T01:31:24.206Z,96111.66
2023-04-17T01:33:53.051Z,96085.84
2023-04-17T01:36:21.672Z,96113.66
2023-04-17T01:38:50.128Z,96110.53
2023-04-17T01:41:18.395Z,96112.75
2023-04-17T01:43:48.931Z,96121.94
2023-04-17T01:46:17.424Z,96078.22
2023-04-17T01:48:45.796Z,96111.72
2023-04-17T01:51:14.151Z,96112.97
2023-04-17T01:53:42.530Z,96114.47
2023-04-17T01:56:11.761Z,96117.25
2023-04-17T01:58:40.153Z,96109.94
2023-04-17T02:01:10.376Z,96116.13
2023-04-17T02:03:38.760Z,96117.97
2023-04-17T02:06:07.816Z,96103.06
2023-04-17T02:08:36.144Z,96104.72
2023-04-17T02:11:04.868Z,96111.88
2023-04-17T02:13:33.274Z,96112.47
2023-04-17T02:16:01.642Z,96109.81
2023-04-17T02:18:31.461Z,96115.16
2023-04-17T02:20:59.831Z,96112.97
2023-04-17T02:23:28.137Z,96116.13
2023-04-17T02:25:56.528Z,96111.88
2023-04-17T02:28:24.961Z,96122.75
2023-04-17T02:30:53.653Z,96112.28
2023-04-17T02:33:21.969Z,96121.94
2023-04-17T02:35:51.958Z,96120.06
2023-04-17T02:38:20.602Z,96115.53
2023-04-17T02:40:48.920Z,96130.56
2023-04-17T02:43:17.429Z,96117.38
2023-04-17T02:45:45.716Z,96114.47
2023-04-17T02:48:14.168Z,96020.13
2023-04-17T02:50:42.760Z,96116.13
2023-04-17T02:53:12.622Z,96117.25
2023-04-17T02:55:41.370Z,96115.63
2023-04-17T02:58:09.715Z,96114.09
2023-04-17T03:00:38.029Z,96110.84
2023-04-17T03:03:06.743Z,96109.81
2023-04-17T03:05:36.050Z,96107.53
2023-04-17T03:08:04.804Z,96106.03
2023-04-17T03:10:34.934Z,96102.47
2023-04-17T03:13:03.837Z,96111.31
2023-04-17T03:15:32.117Z,96107.81
2023-04-17T03:18:00.471Z,96109.34
2023-04-17T03:20:28.830Z,96079.81
2023-04-17T03:22:57.113Z,96117.06
2023-04-17T03:25:25.498Z,96113.78
2023-04-17T03:27:56.866Z,96111.13
2023-04-17T03:30:26.207Z,96117.06
2023-04-17T03:32:54.603Z,96114.25
2023-04-17T03:35:23.209Z,96115.53
2023-04-17T03:37:51.657Z,96102.53
2023-04-17T03:40:20.008Z,96075.69
2023-04-17T03:42:48.401Z,96115.31
2023-04-17T03:45:18.289Z,96119.16
2023-04-17T03:47:47.910Z,95881.63
2023-04-17T03:50:16.498Z,96116.69
2023-04-17T03:52:44.905Z,96117.16
2023-04-17T03:55:13.330Z,96111.47
2023-04-17T03:57:42.037Z,96117.31
2023-04-17T04:00:12.448Z,96124.03
2023-04-17T04:02:42.571Z,96120.94
2023-04-17T04:05:11.823Z,96130.03
2023-04-17T04:07:40.210Z,96051.09
2023-04-17T04:10:09.872Z,96130.59
2023-04-17T04:12:38.175Z,96131.41
2023-04-17T04:15:07.950Z,96137.13
2023-04-17T04:17:36.307Z,96139.78
2023-04-17T04:20:08.626Z,96136.31
2023-04-17T04:22:37.045Z,96143.28
2023-04-17T04:25:06.631Z,96125.91
2023-04-17T04:27:35.321Z,96042.69
2023-04-17T04:30:05.020Z,96146.03
2023-04-17T04:32:34.081Z,96153.13
2023-04-17T04:35:02.538Z,96087.56
2023-04-17T04:37:32.524Z,96153.47
2023-04-17T04:40:10.577Z,96147.88
2023-04-17T04:42:39.825Z,96128.22
2023-04-17T04:45:09.357Z,96141.25
2023-04-17T04:47:37.820Z,96157.19
2023-04-17T04:50:07.383Z,96150.66
2023-04-17T04:52:37.136Z,96143.59
2023-04-17T04:55:06.083Z,96165.69
2023-04-17T04:57:34.531Z,96164.78
2023-04-17T05:00:03.478Z,96163.72
2023-04-17T05:02:31.891Z,96166.41
2023-04-17T05:05:00.475Z,96169.91
2023-04-17T05:07:28.885Z,96082.22
2023-04-17T05:09:58.626Z,96131.75
2023-04-17T05:12:26.968Z,96148.81
2023-04-17T05:14:55.425Z,96175.38
2023-04-17T05:17:23.885Z,96177.94
2023-04-17T05:19:52.283Z,96181.53
2023-04-17T05:22:21.826Z,96134.88
2023-04-17T05:24:50.207Z,96147.22
2023-04-17T05:27:20.882Z,96187.81
2023-04-17T05:29:49.209Z,96091.34
2023-04-17T05:32:17.565Z,96192.44
2023-04-17T05:34:47.466Z,96190.25
2023-04-17T05:37:15.854Z,96197.13
2023-04-17T05:39:44.272Z,96175.56
2023-04-17T05:42:12.544Z,96203.97
2023-04-17T05:44:42.259Z,96191.16
2023-04-17T05:47:10.654Z,96191.88
2023-04-17T05:49:39.293Z,96176.97
2023-04-17T05:52:07.993Z,96196.41
2023-04-17T05:54:36.678Z,96198.28
2023-04-17T05:57:05.118Z,96176.97
2023-04-17T05:59:33.444Z,96198.41
2023-04-17T06:02:03.323Z,96199.66
2023-04-17T06:04:32.284Z,96188.38
2023-04-17T06:07:02.676Z,96172.59
2023-04-17T06:09:31.475Z,96191.63
2023-04-17T06:11:59.814Z,96201.88
2023-04-17T06:14:28.094Z,96198.16
2023-04-17T06:16:56.516Z,96199.56
2023-04-17T06:19:26.586Z,96208.88
2023-04-17T06:21:55.549Z,96204.69
2023-04-17T06:24:23.876Z,96205.72
2023-04-17T06:26:52.268Z,96200.84
2023-04-17T06:29:20.554Z,96206.66
2023-04-17T06:31:48.945Z,96065.66
2023-04-17T06:34:17.249Z,96204.09
2023-04-17T06:36:47.062Z,96210.25
2023-04-17T06:39:15.403Z,96207.38
2023-04-17T06:41:43.750Z,96215.72
2023-04-17T06:44:12.242Z,96207.47
2023-04-17T06:46:40.665Z,96170.69
2023-04-17T06:49:09.140Z,96164.66
2023-04-17T06:51:37.525Z,96223.41
2023-04-17T06:54:09.992Z,96195.22
2023-04-17T06:56:38.314Z,96203.41
2023-04-17T06:59:06.887Z,96210.97
2023-04-17T07:01:35.331Z,96219.94
2023-04-17T07:04:03.703Z,96220.50
2023-04-17T07:06:33.993Z,96143.94
2023-04-17T07:09:02.861Z,96248.88
2023-04-17T07:11:32.920Z,96230.38
2023-04-17T07:14:01.432Z,96229.53
2023-04-17T07:16:29.885Z,96227.09
2023-04-17T07:18:58.221Z,96230.25
2023-04-17T07:21:27.082Z,96232.22
2023-04-17T07:23:55.499Z,96231.09
2023-04-17T07:26:24.069Z,96204.53
2023-04-17T07:28:53.827Z,96236.31
2023-04-17T07:31:22.473Z,96244.56
2023-04-17T07:33:50.946Z,96244.66
2023-04-17T07:36:19.620Z,96217.69
2023-04-17T07:38:47.897Z,96215.47
2023-04-17T07:41:16.464Z,96260.41
2023-04-17T07:43:44.854Z,96261.06
2023-04-17T07:46:15.057Z,96260.03
2023-04-17T07:48:43.381Z,96258.19
2023-04-17T07:51:11.896Z,96256.09
2023-04-17T07:53:40.206Z,96257.97
2023-04-17T07:56:08.687Z,96261.63
2023-04-17T07:58:37.087Z,96262.53
2023-04-17T08:01:06.286Z,96269.06
2023-04-17T08:03:36.365Z,96269.34
2023-04-17T08:06:04.947Z,96270.03
2023-04-17T08:08:33.311Z,96282.38
2023-04-17T08:11:01.714Z,96276.75
2023-04-17T08:13:32.309Z,96277.16
2023-04-17T08:16:01.689Z,96266.91
2023-04-17T08:18:30.185Z,96269.13
2023-04-17T08:21:00.042Z,96279.91
2023-04-17T08:23:28.502Z,96279.59
2023-04-17T08:25:56.867Z,96287.47
2023-04-17T08:28:25.760Z,96283.75
2023-04-17T08:30:54.206Z,96286.56
2023-04-17T08:33:22.575Z,96274.25
2023-04-17T08:35:50.912Z,96287.31
2023-04-17T08:38:21.125Z,96295.88
2023-04-17T08:40:53.958Z,96293.53
2023-04-17T08:43:22.794Z,96286.44
2023-04-17T08:45:54.324Z,96293.09
2023-04-17T08:48:23.289Z,96301.91
2023-04-17T08:50:54.091Z,96302.69
2023-04-17T08:53:23.917Z,96272.31
2023-04-17T08:55:52.434Z,96307.16
2023-04-17T08:58:22.094Z,96290.13
2023-04-17T09:00:50.547Z,96282.44
2023-04-17T09:03:19.042Z,96310.28
2023-04-17T09:05:48.669Z,96260.00
2023-04-17T09:08:20.911Z,96317.28
2023-04-17T09:10:52.529Z,96315.53
2023-04-17T09:13:25.054Z,96313.75
2023-04-17T09:16:06.488Z,96321.13
2023-04-17T09:18:36.219Z,96319.34
2023-04-17T09:21:06.290Z,96317.59
2023-04-17T09:23:49.961Z,96320.28
2023-04-17T09:26:21.264Z,96308.34
2023-04-17T09:29:09.328Z,96319.09
2023-04-17T09:31:39.558Z,96315.66
2023-04-17T09:34:09.278Z,96321.22
2023-04-17T09:36:39.150Z,96327.75
2023-04-17T09:39:18.125Z,96324.78
2023-04-17T09:41:48.868Z,96286.81
2023-04-17T09:44:28.241Z,96336.97
2023-04-17T09:46:57.672Z,96323.09
2023-04-17T09:49:35.402Z,96329.81
2023-04-17T09:52:04.450Z,96288.41
2023-04-17T09:54:33.292Z,96343.72
2023-04-17T09:57:04.589Z,96330.00
2023-04-17T09:59:33.610Z,96314.53
2023-04-17T10:02:02.828Z,96336.75
2023-04-17T10:04:32.032Z,96279.41
2023-04-17T10:07:00.792Z,96339.53
2023-04-17T10:09:29.074Z,96341.03
2023-04-17T10:11:58.298Z,96311.25
2023-04-17T10:14:29.693Z,96265.50
2023-04-17T10:16:58.198Z,96340.75
2023-04-17T10:19:29.694Z,96343.75
2023-04-17T10:22:41.512Z,96335.06
2023-04-17T10:25:23.899Z,96338.31
2023-04-17T10:27:59.969Z,96344.00
2023-04-17T10:30:55.192Z,96335.63
2023-04-17T10:33:25.962Z,96329.44
2023-04-17T10:35:55.273Z,96338.53
2023-04-17T10:38:34.820Z,96344.81
2023-04-17T10:41:05.311Z,96348.75
2023-04-17T10:43:33.655Z,96345.81
2023-04-17T10:46:10.287Z,96351.19
2023-04-17T10:48:41.956Z,96329.88
2023-04-17T10:51:43.971Z,96334.22
2023-04-17T10:54:15.800Z,96324.44
2023-04-17T10:56:46.441Z,96333.66
2023-04-17T10:59:16.011Z,96339.03
2023-04-17T11:02:04.509Z,96313.88
2023-04-17T11:04:34.112Z,96312.81
2023-04-17T11:07:02.723Z,96337.53
2023-04-17T11:09:31.410Z,96308.53
2023-04-17T11:12:03.379Z,96339.75
2023-04-17T11:14:32.780Z,96341.81
2023-04-17T11:17:02.873Z,96335.50
2023-04-17T11:19:33.783Z,96334.78
2023-04-17T11:22:03.005Z,96328.09
2023-04-17T11:24:32.650Z,96330.56
2023-04-17T11:27:04.028Z,96338.88
2023-04-17T11:29:32.417Z,96341.22
2023-04-17T11:32:02.237Z,96337.97
2023-04-17T11:34:31.905Z,96341.19
2023-04-17T11:37:02.478Z,96335.47
2023-04-17T11:39:34.774Z,96342.06
2023-04-17T11:42:03.956Z,96341.81
2023-04-17T11:44:32.281Z,96342.09
2023-04-17T11:47:04.161Z,96340.28
2023-04-17T11:49:34.637Z,96346.88
2023-04-17T11:52:04.445Z,96338.44
2023-04-17T11:54:37.526Z,96341.13
2023-04-17T11:57:08.320Z,96303.31
2023-04-17T11:59:38.120Z,96330.56
2023-04-17T12:02:09.621Z,96331.13
2023-04-17T12:04:40.124Z,96337.53
2023-04-17T12:07:09.817Z,96336.31
2023-04-17T12:09:38.212Z,96336.44
2023-04-17T12:12:08.972Z,96326.59
2023-04-17T12:14:37.292Z,96331.00
2023-04-17T12:17:05.715Z,96326.59
2023-04-17T12:19:35.491Z,96325.13
2023-04-17T12:22:03.882Z,96305.91
2023-04-17T12:24:32.206Z,96326.97
2023-04-17T12:27:02.085Z,96322.63
2023-04-17T12:29:42.993Z,96292.72
2023-04-17T12:32:13.323Z,96271.38
2023-04-17T12:34:43.153Z,96331.91
2023-04-17T12:37:11.753Z,96325.53
2023-04-17T12:39:40.145Z,96304.09
2023-04-17T12:42:08.400Z,96316.75
2023-04-17T12:44:37.026Z,96303.97
2023-04-17T12:47:05.453Z,96294.97
2023-04-17T12:49:33.872Z,96334.97
2023-04-17T12:52:04.115Z,96318.66
2023-04-17T12:54:33.217Z,96318.25
2023-04-17T12:57:01.723Z,96317.75
2023-04-17T12:59:30.016Z,96277.50
2023-04-17T13:01:58.431Z,96318.72
2023-04-17T13:04:27.066Z,96320.97
2023-04-17T13:06:55.881Z,96332.00
2023-04-17T13:09:25.976Z,96326.75
2023-04-17T13:11:54.276Z,96271.00
2023-04-17T13:14:22.672Z,96327.25
2023-04-17T13:16:51.794Z,96333.00
2023-04-17T13:19:20.308Z,96332.47
2023-04-17T13:21:48.672Z,96332.13
2023-04-17T13:24:16.964Z,96329.41
2023-04-17T13:26:46.652Z,96328.88
2023-04-17T13:29:17.060Z,96324.28
2023-04-17T13:31:46.831Z,96289.16
2023-04-17T13:34:15.169Z,96328.06
2023-04-17T13:36:45.063Z,96316.22
2023-04-17T13:39:14.049Z,96319.88
2023-04-17T13:41:42.563Z,96326.09
2023-04-17T13:44:12.738Z,96317.66
2023-04-17T13:46:41.762Z,96320.53
2023-04-17T13:49:10.267Z,96315.75
2023-04-17T13:51:38.757Z,96316.81
2023-04-17T13:54:07.223Z,96316.81
2023-04-17T13:56:35.595Z,96312.53
2023-04-17T13:59:05.793Z,96311.81
2023-04-17T14:01:35.740Z,96318.28
2023-04-17T14:04:04.796Z,96310.13
2023-04-17T14:06:34.405Z,96313.50
2023-04-17T14:09:02.827Z,96309.28
2023-04-17T14:11:31.177Z,96303.72
2023-04-17T14:13:59.778Z,96302.03
2023-04-17T14:16:28.371Z,96301.53
2023-04-17T14:19:06.435Z,96284.91
2023-04-17T14:21:41.562Z,96287.59
2023-04-17T14:24:09.974Z,96305.38
2023-04-17T14:26:39.261Z,96303.59
2023-04-17T14:29:07.586Z,96299.97
2023-04-17T14:31:36.026Z,96262.06
2023-04-17T14:34:05.883Z,96296.53
2023-04-17T14:36:35.843Z,96301.00
2023-04-17T14:39:04.613Z,96300.78
2023-04-17T14:41:34.391Z,96263.00
2023-04-17T14:44:02.832Z,96283.72
2023-04-17T14:46:31.176Z,96301.16
2023-04-17T14:48:59.480Z,96301.16
2023-04-17T14:51:30.687Z,96299.56
2023-04-17T14:53:59.158Z,96118.50
2023-04-17T14:56:27.524Z,96080.88
2023-04-17T14:58:55.901Z,96295.84
2023-04-17T15:01:24.327Z,96294.34
2023-04-17T15:03:53.035Z,96291.56
2023-04-17T15:06:21.788Z,96293.78
2023-04-17T15:08:52.007Z,96290.25
2023-04-17T15:11:21.140Z,96297.94
2023-04-17T15:13:49.492Z,96303.09
2023-04-17T15:16:18.078Z,96276.00
2023-04-17T15:18:46.484Z,96300.22
2023-04-17T15:21:16.829Z,96194.53
2023-04-17T15:23:45.131Z,96301.09
2023-04-17T15:26:15.399Z,96274.31
2023-04-17T15:28:43.783Z,96300.16
2023-04-17T15:31:12.478Z,96299.03
2023-04-17T15:33:40.880Z,96292.41
2023-04-17T15:36:09.296Z,96298.25
2023-04-17T15:38:37.855Z,96299.84
2023-04-17T15:41:06.585Z,96293.81
2023-04-17T15:43:37.114Z,96296.94
2023-04-17T15:46:05.591Z,96292.66
2023-04-17T15:48:33.901Z,96292.97
2023-04-17T15:51:04.637Z,96270.13
2023-04-17T15:53:33.393Z,96219.81
2023-04-17T15:56:01.791Z,96293.47
2023-04-17T15:58:30.273Z,96289.66
2023-04-17T16:01:00.024Z,96290.16
2023-04-17T16:03:28.715Z,96297.03
2023-04-17T16:05:57.314Z,96293.97
2023-04-17T16:08:25.793Z,96299.75
2023-04-17T16:10:54.174Z,96286.75
2023-04-17T16:13:22.517Z,96301.78
2023-04-17T16:15:51.964Z,96298.53
2023-04-17T16:18:21.797Z,96301.69
2023-04-17T16:20:50.136Z,96303.78
2023-04-17T16:23:18.428Z,96305.41
2023-04-17T16:25:46.742Z,96304.38
2023-04-17T16:28:17.286Z,96315.34
2023-04-17T16:30:52.677Z,96267.81
2023-04-17T16:33:25.125Z,96305.94
2023-04-17T16:35:53.458Z,96294.44
2023-04-17T16:38:21.792Z,96297.63
2023-04-17T16:40:50.168Z,96291.97
2023-04-17T16:43:18.855Z,96299.00
2023-04-17T16:45:47.159Z,96295.91
2023-04-17T16:48:16.541Z,96291.28
2023-04-17T16:50:46.358Z,96292.25
2023-04-17T16:53:14.790Z,96297.63
2023-04-17T16:55:43.154Z,96288.69
2023-04-17T16:58:11.649Z,96297.88
2023-04-17T17:00:40.073Z,96290.06
2023-04-17T17:03:08.660Z,96295.91
2023-04-17T17:05:37.325Z,96300.16
2023-04-17T17:08:07.163Z,96291.13
2023-04-17T17:10:35.549Z,96298.59
2023-04-17T17:13:03.941Z,96301.22
2023-04-17T17:15:32.224Z,96308.56
2023-04-17T17:18:00.602Z,96305.66
2023-04-17T17:20:28.917Z,96306.97
2023-04-17T17:22:57.269Z,96311.09
2023-04-17T17:25:27.138Z,96310.53
2023-04-17T17:27:55.620Z,96250.28
2023-04-17T17:30:24.109Z,95982.75
2023-04-17T17:32:52.500Z,96306.84
2023-04-17T17:35:21.154Z,96292.66
2023-04-17T17:37:49.508Z,96308.81
2023-04-17T17:40:17.970Z,96312.63
2023-04-17T17:42:47.937Z,96314.31
2023-04-17T17:45:16.244Z,96307.16
2023-04-17T17:47:44.662Z,96312.41
2023-04-17T17:50:13.054Z,96318.03
2023-04-17T17:52:41.318Z,96315.28
2023-04-17T17:55:14.292Z,96313.63
2023-04-17T17:57:48.885Z,96314.47
2023-04-17T18:00:20.468Z,96306.63
2023-04-17T18:02:48.893Z,96307.09
2023-04-17T18:05:17.716Z,96309.22
2023-04-17T18:07:46.066Z,96306.47
2023-04-17T18:10:14.685Z,96287.88
2023-04-17T18:12:43.365Z,96309.53
2023-04-17T18:15:12.440Z,96313.72
2023-04-17T18:17:42.309Z,96306.63
2023-04-17T18:20:11.540Z,96312.69
2023-04-17T18:22:39.859Z,96313.69
2023-04-17T18:25:09.046Z,96313.34
2023-04-17T18:27:37.493Z,96318.56
2023-04-17T18:30:06.911Z,96314.19
2023-04-17T18:32:35.671Z,96312.75
2023-04-17T18:35:06.360Z,96313.50
2023-04-17T18:37:34.652Z,96317.94
2023-04-17T18:40:03.193Z,96322.94
2023-04-17T18:42:31.545Z,96322.84
2023-04-17T18:44:59.937Z,96316.56
2023-04-17T18:47:28.323Z,96320.75
2023-04-17T18:49:56.683Z,96326.81
2023-04-17T18:52:26.537Z,96328.34
2023-04-17T18:54:54.878Z,96327.16
2023-04-17T18:57:23.188Z,96326.84
2023-04-17T18:59:51.496Z,96332.28
2023-04-17T19:02:19.849Z,96309.91
2023-04-17T19:04:48.221Z,96325.72
2023-04-17T19:07:16.499Z,96333.78
2023-04-17T19:09:46.294Z,96337.28
2023-04-17T19:12:14.751Z,96331.91
2023-04-17T19:14:43.065Z,96341.34
2023-04-17T19:17:11.463Z,96342.63
2023-04-17T19:19:39.755Z,96332.63
2023-04-17T19:22:08.090Z,96334.13
2023-04-17T19:24:36.419Z,96342.84
2023-04-17T19:27:06.188Z,96351.59
2023-04-17T19:29:34.615Z,96335.25
2023-04-17T19:32:03.414Z,96344.47
2023-04-17T19:34:31.804Z,96345.03
2023-04-17T19:37:00.758Z,96341.31
2023-04-17T19:39:29.710Z,96348.31
2023-04-17T19:41:58.201Z,96224.16
2023-04-17T19:44:28.703Z,96342.16
2023-04-17T19:46:57.864Z,96346.69
2023-04-17T19:49:26.234Z,96343.75
2023-04-17T19:51:54.578Z,96341.91
2023-04-17T19:54:22.852Z,96338.19
2023-04-17T19:56:51.242Z,96302.19
2023-04-17T19:59:19.596Z,96345.66
2023-04-17T20:01:50.022Z,96337.84
2023-04-17T20:04:18.695Z,96293.22
2023-04-17T20:06:47.282Z,96341.78
2023-04-17T20:09:16.835Z,96341.22
2023-04-17T20:11:45.560Z,96324.78
2023-04-17T20:14:15.827Z,96352.25
2023-04-17T20:16:46.457Z,96341.75
2023-04-17T20:19:16.843Z,96342.47
2023-04-17T20:21:47.086Z,96311.13
2023-04-17T20:24:16.261Z,96342.13
2023-04-17T20:26:45.775Z,96343.97
2023-04-17T20:29:14.367Z,96306.91
2023-04-17T20:31:43.050Z,96342.34
2023-04-17T20:34:11.450Z,96294.00
2023-04-17T20:36:41.421Z,96314.03
2023-04-17T20:39:11.258Z,96323.38
2023-04-17T20:41:39.916Z,96340.38
2023-04-17T20:44:08.495Z,96322.44
2023-04-17T20:46:36.827Z,96341.19
2023-04-17T20:49:05.181Z,96344.91
2023-04-17T20:51:33.456Z,96265.47
2023-04-17T20:54:03.211Z,96346.75
2023-04-17T20:56:31.874Z,96346.19
2023-04-17T20:59:00.145Z,96343.50
2023-04-17T21:01:28.961Z,96332.69
2023-04-17T21:03:57.601Z,96348.63
2023-04-17T21:06:26.993Z,96323.94
2023-04-17T21:08:55.650Z,96340.94
2023-04-17T21:11:25.393Z,96343.16
2023-04-17T21:13:53.744Z,96339.47
2023-04-17T21:16:22.126Z,96345.38
2023-04-17T21:18:50.514Z,96350.75
2023-04-17T21:21:18.910Z,96345.19
2023-04-17T21:23:47.294Z,96337.25
2023-04-17T21:26:15.630Z,96351.69
2023-04-17T21:28:45.359Z,96358.69
2023-04-17T21:31:15.502Z,96358.69
2023-04-17T21:33:43.861Z,96366.00
2023-04-17T21:36:12.290Z,96356.22
2023-04-17T21:38:40.818Z,96093.84
2023-04-17T21:41:09.564Z,96368.19
2023-04-17T21:43:37.894Z,96360.88
2023-04-17T21:46:11.047Z,96365.41
2023-04-17T21:48:40.328Z,96365.88
2023-04-17T21:51:08.634Z,96351.28
2023-04-17T21:53:38.235Z,96360.16
2023-04-17T21:56:07.230Z,96365.06
2023-04-17T21:58:35.640Z,96339.44
2023-04-17T22:01:04.856Z,96375.09
2023-04-17T22:03:35.103Z,96348.75
2023-04-17T22:06:03.794Z,96372.28
2023-04-17T22:08:32.209Z,96315.53
2023-04-17T22:11:00.623Z,96374.97
2023-04-17T22:13:28.990Z,96371.50
2023-04-17T22:15:58.502Z,96367.75
2023-04-17T22:18:27.541Z,96374.97
2023-04-17T22:20:57.305Z,96372.28
2023-04-17T22:23:25.629Z,96333.63
2023-04-17T22:25:53.905Z,96370.22
2023-04-17T22:28:22.260Z,96361.25
2023-04-17T22:30:52.108Z,96366.47
2023-04-17T22:33:20.479Z,96366.47
2023-04-17T22:35:49.554Z,96363.56
2023-04-17T22:38:20.285Z,96370.22
2023-04-17T22:40:48.774Z,96363.22
2023-04-17T22:43:17.082Z,96362.84
2023-04-17T22:45:45.371Z,96366.81
2023-04-17T22:48:13.775Z,96367.84
2023-04-17T22:50:42.926Z,96367.06
2023-04-17T22:53:11.280Z,96363.56
2023-04-17T22:55:41.271Z,96361.69
2023-04-17T22:58:09.653Z,96340.72
2023-04-17T23:00:38.414Z,96365.31
2023-04-17T23:03:07.191Z,96358.31
2023-04-17T23:05:35.553Z,96363.91
2023-04-17T23:08:03.903Z,96363.31
2023-04-17T23:10:32.179Z,96366.81
2023-04-17T23:13:01.946Z,96339.06
2023-04-17T23:15:30.448Z,96365.31
2023-04-17T23:17:58.919Z,96357.03
2023-04-17T23:20:27.332Z,96326.75
2023-04-17T23:22:55.729Z,96355.63
2023-04-17T23:25:24.065Z,96359.22
2023-04-17T23:27:52.400Z,96350.06
